Terminal Aerodrome Forecast
Issued by NWS Louisville, KY

Home | Current Version | Previous Version | Text Only | Print | Product List | Glossary On
Versions: 1 2 3 4 5 6 7 8 9 10 11 12 13 14 15 16 17 18 19 20 21
000
FTUS43 KLMK 281700
TAFSDF
TAF
KSDF 281720Z 2818/2924 28008KT P6SM SCT060
     FM290200 18005KT P6SM SCT060 BKN120
     FM291000 19010KT P6SM VCSH BKN050
     FM291400 22014G22KT P6SM BKN050=

USA.gov is the U.S. government's official web portal to all federal, state and local government web resources and services.